Terminal Aerodrome Forecast
Issued by NWS Kansas City/Pleasant Hill, MO

Home | Current Version | Previous Version | Text Only | Print | Product List | Glossary On
Versions: 1 2 3 4 5 6 7 8 9 10 11 12 13
276
FTUS43 KEAX 030433 AAB
TAFMCI
TAF AMD
KMCI 030433Z 0305/0324 22016G26KT P6SM VCSH OVC019
     FM031200 31014G24KT P6SM BKN020
     FM032100 31012KT P6SM SCT020=

USA.gov is the U.S. government's official web portal to all federal, state and local government web resources and services.